메인 페이지
METAR-TAF:

METAR-TAF

공항 :

하츠필드 잭슨 애틀랜타 국제공항

애틀랜타, 조지아, 미국

위도: 33-38-25N, 경도: 084-25-37W, 고도: 313m

현재 날씨관측

예보는 22분 전, 16:52시(UTC)에 발표되었습니다.
12kt
온도 9°C
습도 71%
기압 1009 hPa
시정: 16.1km
고도 2100ft 상공 구름 많음
고도 2600ft 상공 흐림

METAR: KATL 141652Z 28012KT 10SM BKN021 OVC026 09/04 A2979 RMK AO2 SLP090 BINOVC T00890044

시각: 12:14 (17:14 UTC)

예보

예보는 1 시간 20분 전, 15:54시(UTC)에 발표되었습니다.
예보 대상 시간: 14일 16시부터 15일 18시까지 (UTC)
서북서12kt, 순간 최대 풍속 20kt
시정: 10km
고도 1400ft 상공 구름 보통
고도 2000ft 상공 흐림
14일 1900시부터 (UTC)
서북서14kt, 순간 최대 풍속 20kt
시정: 10km
고도 1500ft 상공 구름 보통
고도 6000ft 상공 구름 보통
15일 0400시부터 (UTC)
5kt
시정: 10km
고도 3500ft 상공 구름 많음
15일 1500시부터 (UTC)
여러 방향의 바람 3kt
시정: 10km
고도 5000ft 상공 구름 많음

TAF: KATL 141554Z 1416/1518 29012G20KT P6SM SCT014 OVC020 FM141900 29014G20KT P6SM SCT015 SCT060 FM150400 27005KT P6SM BKN035 FM151500 VRB03KT P6SM BKN050

4,000개 이상의 공항 관측 자료 및 예보 (METAR 및 TAF 보고).

지도상에서 검색 가능한 기상관측소가 노란 점과 빨간 점으로 표시되어 있습니다.

기상관측소 명을 보려면 표시 위로 마우스를 이동하세요.

날씨 관측과 예보를 보려면 클릭하세요.

지도 변경 : 확대하려면 엑스 표시가 있는 녹색 버튼, 축소하려면 빼기 표시가 있는 녹색 버튼, 다음 페이지의 지도를 보려면 녹색 화살표를 클릭하세요.


METAR-TAF: